»·PEaware :: JBU123 KPHX-KSNA

JBU123 :: KPHX-KSNA

FLIGHT INFORMATION

Flight Status: Arrived
Operator:
JetBlue Airways
More flights by this operator :: More flights under this callsign
Pilot: Mitchell L. (19304)
Aircraft: AIRBUS A319
(A319)
More flights by this aircraft type
Origin: KPHX Phoenix Sky Harbor Intl
United States
Destination: KSNA John Wayne-Orange Co
United States
More flights between these airports :: More routes between these airports
Route: KEENS2 HRRBR EMLLD DSNEE4
File this flight plan on PilotEdge
Remarks:
Altitude:
(Current/Filed)
28,000ft
Speed:
(Current/Filed)
475kts
Departed: 03-Dec-18 05:29 PM
Arrived: 03-Dec-18 06:24 PM
Distance/Time
Traveled:
293nm/0:55
Distance/Time
To Go:
Arrived

Flight Plot

Page will automatically refresh every two minutes.

Flight plan parsing failed; only flown route is shown


Map Options




Map Legend


Flown Route
Filed Route
Departure Airport
Arrival Airport
Navaid (VOR, NDB)
Fix

Horizontal Profiles

Position Reports

Time Latitude Longitude Heading Altitude Ground
Speed
03-Dec-18 17:01 33.437345 -112.009383 99 1118ft 0kts
03-Dec-18 17:02 33.437345 -112.009383 99 1118ft 0kts
03-Dec-18 17:03 33.437345 -112.009383 99 1118ft 0kts
03-Dec-18 17:04 33.437345 -112.009383 99 1118ft 0kts
03-Dec-18 17:05 33.437345 -112.009383 99 1118ft 0kts
03-Dec-18 17:06 33.437345 -112.009383 99 1118ft 0kts
03-Dec-18 17:07 33.437345 -112.009383 99 1118ft 0kts
03-Dec-18 17:08 33.437345 -112.009383 99 1118ft 0kts
03-Dec-18 17:09 33.437345 -112.009383 99 1118ft 0kts
03-Dec-18 17:10 33.437345 -112.009383 99 1118ft 0kts
03-Dec-18 17:11 33.437345 -112.009383 99 1118ft 0kts
03-Dec-18 17:12 33.437345 -112.009383 99 1118ft 0kts
03-Dec-18 17:13 33.437345 -112.009383 99 1118ft 0kts
03-Dec-18 17:14 33.437345 -112.009383 99 1118ft 0kts
03-Dec-18 17:15 33.437345 -112.009383 99 1118ft 0kts
03-Dec-18 17:16 33.437345 -112.009383 99 1118ft 0kts
03-Dec-18 17:17 33.437393 -112.009924 71 1118ft 2kts
03-Dec-18 17:18 33.437019 -112.010223 359 1118ft 0kts
03-Dec-18 17:19 33.437020 -112.010223 359 1118ft 0kts
03-Dec-18 17:20 33.437118 -112.010220 1 1118ft 2kts
03-Dec-18 17:21 33.438216 -112.010193 0 1118ft 2kts
03-Dec-18 17:22 33.439692 -112.011133 56 1118ft 9kts
03-Dec-18 17:23 33.439726 -112.006512 90 1118ft 17kts
03-Dec-18 17:24 33.439734 -112.000316 89 1118ft 21kts
03-Dec-18 17:25 33.439734 -111.993320 90 1118ft 15kts
03-Dec-18 17:26 33.439840 -111.991246 44 1118ft 0kts
03-Dec-18 17:27 33.439932 -111.991179 20 1118ft 3kts
03-Dec-18 17:28 33.440859 -111.994519 270 1118ft 59kts
03-Dec-18 17:29 33.440858 -112.041446 261 2572ft 165kts
03-Dec-18 17:30 33.417277 -112.100190 256 4709ft 238kts
03-Dec-18 17:31 33.395207 -112.180964 256 7722ft 278kts
03-Dec-18 17:32 33.401867 -112.273566 281 10886ft 299kts
03-Dec-18 17:33 33.418476 -112.384577 281 12479ft 370kts
03-Dec-18 17:34 33.436565 -112.507651 281 15439ft 383kts
03-Dec-18 17:35 33.450559 -112.635897 274 17998ft 397kts
03-Dec-18 17:36 33.453173 -112.772180 276 19945ft 415kts
03-Dec-18 17:37 33.473241 -112.908486 283 22131ft 417kts
03-Dec-18 17:38 33.497465 -113.038744 283 25257ft 391kts
03-Dec-18 17:39 33.520674 -113.164058 283 27627ft 378kts
03-Dec-18 17:40 33.543953 -113.290356 283 28220ft 402kts
03-Dec-18 17:41 33.568024 -113.421807 283 28224ft 403kts
03-Dec-18 17:42 33.592055 -113.552890 283 28224ft 403kts
03-Dec-18 17:43 33.616645 -113.684664 282 28212ft 403kts
03-Dec-18 17:44 33.641043 -113.815637 284 28209ft 403kts
03-Dec-18 17:45 33.679898 -113.942024 293 28213ft 404kts
03-Dec-18 17:46 33.726931 -114.064887 293 28223ft 404kts
03-Dec-18 17:47 33.762760 -114.192709 281 28235ft 405kts
03-Dec-18 17:48 33.778956 -114.326511 279 28242ft 405kts
03-Dec-18 17:49 33.794657 -114.460861 279 28243ft 405kts
03-Dec-18 17:50 33.810124 -114.595301 279 28243ft 405kts
03-Dec-18 17:51 33.825410 -114.729931 278 28242ft 405kts
03-Dec-18 17:52 33.840585 -114.864587 278 28243ft 405kts
03-Dec-18 17:53 33.853943 -114.984388 278 28243ft 405kts
03-Dec-18 17:54 33.868890 -115.119061 277 28232ft 406kts
03-Dec-18 17:55 33.883690 -115.254126 277 28213ft 407kts
03-Dec-18 17:56 33.898003 -115.386139 277 28208ft 408kts
03-Dec-18 17:57 33.912594 -115.521747 277 28208ft 407kts
03-Dec-18 17:58 33.926912 -115.657359 275 28208ft 408kts
03-Dec-18 17:59 33.936374 -115.792348 274 28212ft 408kts
03-Dec-18 18:00 33.945833 -115.928421 275 28218ft 407kts
03-Dec-18 18:01 33.955270 -116.064280 275 28223ft 408kts
03-Dec-18 18:02 33.961568 -116.198032 269 28226ft 385kts
03-Dec-18 18:03 33.949801 -116.321119 264 28227ft 358kts
03-Dec-18 18:04 33.935600 -116.437878 263 26255ft 350kts
03-Dec-18 18:05 33.921370 -116.552469 263 23989ft 343kts
03-Dec-18 18:06 33.906820 -116.665373 262 21756ft 338kts
03-Dec-18 18:07 33.892846 -116.775123 263 19666ft 332kts
03-Dec-18 18:08 33.881307 -116.882283 263 17753ft 323kts
03-Dec-18 18:09 33.870454 -116.981236 263 15164ft 302kts
03-Dec-18 18:10 33.859543 -117.079649 263 12463ft 290kts
03-Dec-18 18:11 33.849266 -117.171128 264 10099ft 278kts
03-Dec-18 18:12 33.838990 -117.263168 264 9790ft 277kts
03-Dec-18 18:13 33.829150 -117.349923 265 8949ft 243kts
03-Dec-18 18:14 33.819908 -117.430706 263 7759ft 244kts
03-Dec-18 18:15 33.798727 -117.509048 257 6258ft 246kts
03-Dec-18 18:16 33.801042 -117.589966 287 5005ft 238kts
03-Dec-18 18:17 33.835100 -117.656993 300 5000ft 232kts
03-Dec-18 18:18 33.864603 -117.725310 262 3769ft 241kts
03-Dec-18 18:19 33.820296 -117.777277 207 2991ft 215kts
03-Dec-18 18:20 33.774983 -117.805937 208 2382ft 176kts
03-Dec-18 18:21 33.734584 -117.831522 208 1357ft 161kts
03-Dec-18 18:22 33.695626 -117.856193 208 389ft 146kts
03-Dec-18 18:23 33.672083 -117.871126 207 58ft 30kts
03-Dec-18 18:24 33.669091 -117.871010 60 58ft 8kts
03-Dec-18 18:25 33.673061 -117.867324 49 58ft 23kts
03-Dec-18 18:26 33.678136 -117.863936 26 58ft 18kts
03-Dec-18 18:27 33.680053 -117.861863 104 65ft 0kts
03-Dec-18 18:28 33.680053 -117.861863 104 65ft 0kts
03-Dec-18 18:29 33.680053 -117.861863 104 65ft 0kts
03-Dec-18 18:30 33.680053 -117.861863 104 65ft 0kts
03-Dec-18 18:31 33.680053 -117.861863 104 65ft 0kts
03-Dec-18 18:32 33.680053 -117.861863 104 65ft 0kts
03-Dec-18 18:33 33.680053 -117.861863 104 65ft 0kts
03-Dec-18 18:34 33.680053 -117.861863 104 65ft 0kts
03-Dec-18 18:35 33.680053 -117.861863 104 65ft 0kts
03-Dec-18 18:36 33.680053 -117.861863 104 65ft 0kts

Navigation Log

Ident Type
Flight plan parsing failed, navigation log unavailable